Time;durP1;ratioP1;P1;durP2;ratioP2;P2;SDS_P1;SDS_P2;PMS_P1;PMS_P2;Temp;Humidity;BMP_temperature;BMP_pressure;BME280_temperature;BME280_humidity;BME280_pressure;Samples;Min_cycle;Max_cycle;Signal;HPM_P1;HPM_P2
2022/04/21 00:00:27;;;;;;;7.97;5.30;;;;;;;4.69;100.00;94459.47;5013323;28;20206;-63
2022/04/21 00:02:53;;;;;;;6.50;5.17;;;;;;;4.79;100.00;94478.91;5012649;28;20205;-64
2022/04/21 00:05:19;;;;;;;6.57;5.23;;;;;;;4.72;100.00;94477.72;5012989;28;20183;-64
2022/04/21 00:07:47;;;;;;;6.13;5.43;;;;;;;4.68;100.00;94472.97;5013414;28;20213;-64
2022/04/21 00:10:12;;;;;;;6.20;4.70;;;;;;;4.64;100.00;94452.25;5013109;28;20176;-66
2022/04/21 00:12:38;;;;;;;5.70;4.83;;;;;;;4.71;100.00;94460.16;5011639;28;20220;-64
2022/04/21 00:15:04;;;;;;;6.30;5.20;;;;;;;4.95;100.00;94474.50;5012653;28;20242;-64
2022/04/21 00:17:36;;;;;;;6.70;5.00;;;;;;;4.93;100.00;94491.41;5013091;28;20294;-63
2022/04/21 00:20:02;;;;;;;7.27;5.73;;;;;;;4.90;100.00;94489.13;5012945;28;20179;-63
2022/04/21 00:25:12;;;;;;;8.23;5.80;;;;;;;4.63;100.00;94458.16;5012778;28;20799;-66
2022/04/21 00:27:42;;;;;;;8.13;5.70;;;;;;;4.63;100.00;94452.31;5011377;28;20711;-63
2022/04/21 00:30:10;;;;;;;6.40;5.40;;;;;;;4.62;100.00;94450.72;5012563;28;20180;-64
2022/04/21 00:32:36;;;;;;;8.30;6.00;;;;;;;4.65;100.00;94456.34;5012972;28;20603;-64
2022/04/21 00:35:04;;;;;;;7.43;6.13;;;;;;;4.82;100.00;94460.28;5012447;28;20203;-63
2022/04/21 00:37:29;;;;;;;6.93;5.13;;;;;;;4.91;100.00;94478.13;5012570;28;20667;-67
2022/04/21 00:39:55;;;;;;;7.53;6.50;;;;;;;4.96;100.00;94493.75;5012324;28;20267;-66
2022/04/21 00:42:21;;;;;;;9.03;6.50;;;;;;;4.91;100.00;94494.94;5012822;28;20197;-63
2022/04/21 00:44:49;;;;;;;8.30;7.03;;;;;;;4.77;100.00;94485.75;5012547;28;20635;-64
2022/04/21 00:47:14;;;;;;;9.03;6.07;;;;;;;4.73;100.00;94475.97;5012659;28;20202;-63
2022/04/21 00:49:40;;;;;;;10.33;7.13;;;;;;;4.97;100.00;94507.13;5012279;28;20176;-66
2022/04/21 00:52:07;;;;;;;10.20;7.53;;;;;;;4.68;100.00;94488.09;5012450;28;20213;-64
2022/04/21 00:54:33;;;;;;;10.17;7.60;;;;;;;4.67;100.00;94484.75;5012197;28;20291;-63
2022/04/21 00:57:01;;;;;;;10.00;7.80;;;;;;;4.41;100.00;94457.94;5038797;23;20231;-67
2022/04/21 00:59:27;;;;;;;9.97;7.33;;;;;;;4.74;100.00;94488.50;5032120;28;20183;-66
2022/04/21 01:04:34;;;;;;;10.80;7.13;;;;;;;4.75;100.00;94475.00;5051884;23;20222;-64
2022/04/21 01:07:00;;;;;;;13.50;7.03;;;;;;;4.87;100.00;94485.97;5032040;28;20362;-63
2022/04/21 01:09:26;;;;;;;9.50;6.53;;;;;;;4.64;100.00;94454.75;5032459;28;20190;-65
2022/04/21 01:11:52;;;;;;;8.57;6.77;;;;;;;4.81;100.00;94472.06;5031826;28;20207;-66
2022/04/21 01:14:18;;;;;;;9.10;7.27;;;;;;;4.83;100.00;94475.28;5032774;28;20210;-63
2022/04/21 01:16:45;;;;;;;9.30;7.53;;;;;;;4.80;100.00;94464.63;5043194;23;20233;-64
2022/04/21 01:19:11;;;;;;;9.77;7.10;;;;;;;4.84;100.00;94478.63;5035922;28;20223;-67
2022/04/21 01:21:36;;;;;;;10.97;7.37;;;;;;;4.96;100.00;94466.03;5035828;28;20204;-62
2022/04/21 01:24:04;;;;;;;9.70;6.77;;;;;;;5.13;100.00;94500.16;5035954;28;20242;-63
2022/04/21 01:26:34;;;;;;;11.30;7.20;;;;;;;5.01;100.00;94483.34;5035581;28;20275;-66
2022/04/21 01:29:02;;;;;;;9.03;6.37;;;;;;;4.79;100.00;94443.66;5035886;28;20179;-66
2022/04/21 01:31:28;;;;;;;9.77;7.37;;;;;;;4.72;100.00;94449.22;5035487;28;20206;-65
2022/04/21 01:33:53;;;;;;;11.40;7.27;;;;;;;4.36;100.00;94423.91;5035512;28;20303;-64
2022/04/21 01:36:19;;;;;;;11.07;7.43;;;;;;;4.39;100.00;94414.44;5035710;28;20675;-63
2022/04/21 01:41:29;;;;;;;9.47;7.33;;;;;;;4.25;100.00;94400.25;5035542;28;20212;-63
2022/04/21 01:43:54;;;;;;;9.23;7.23;;;;;;;4.31;100.00;94401.56;5035412;28;20171;-65
2022/04/21 01:46:20;;;;;;;10.60;7.47;;;;;;;4.40;100.00;94415.25;5043048;23;20251;-64
2022/04/21 01:48:45;;;;;;;8.30;6.83;;;;;;;4.55;100.00;94437.72;5034038;28;20575;-67
2022/04/21 01:51:11;;;;;;;10.90;8.07;;;;;;;4.57;100.00;94420.81;5035193;28;20186;-64
2022/04/21 01:53:36;;;;;;;10.47;7.77;;;;;;;4.56;100.00;94425.94;5042110;23;20232;-66
2022/04/21 01:56:02;;;;;;;13.83;7.67;;;;;;;4.39;100.00;94416.16;5035232;28;20181;-64
2022/04/21 01:58:27;;;;;;;11.03;7.83;;;;;;;4.46;100.00;94420.72;5035155;28;20278;-64
2022/04/21 02:00:53;;;;;;;10.20;7.03;;;;;;;4.56;100.00;94416.69;5035008;28;20179;-63
2022/04/21 02:03:19;;;;;;;7.93;6.53;;;;;;;4.73;100.00;94449.09;5040999;23;20227;-63
2022/04/21 02:05:44;;;;;;;7.63;6.53;;;;;;;4.61;100.00;94442.34;5034998;28;20176;-64
2022/04/21 02:08:10;;;;;;;11.33;6.97;;;;;;;4.67;100.00;94431.06;5035494;28;20207;-64
2022/04/21 02:10:35;;;;;;;8.43;6.43;;;;;;;4.79;100.00;94447.88;5034885;28;20189;-65
2022/04/21 02:13:01;;;;;;;8.63;6.47;;;;;;;4.78;100.00;94452.16;5041787;23;20750;-67
2022/04/21 02:15:27;;;;;;;9.53;6.70;;;;;;;4.70;100.00;94424.16;5034765;28;20210;-64
2022/04/21 02:17:52;;;;;;;8.13;6.33;;;;;;;4.62;100.00;94426.38;5042112;23;20237;-65
2022/04/21 02:20:18;;;;;;;6.67;5.90;;;;;;;4.47;100.00;94417.28;5034838;28;20171;-65
2022/04/21 02:22:44;;;;;;;9.37;7.13;;;;;;;4.49;100.00;94424.72;5034725;28;20311;-64
2022/04/21 02:25:12;;;;;;;8.13;6.30;;;;;;;4.54;100.00;94418.50;5041408;23;21433;-64
2022/04/21 02:27:40;;;;;;;7.30;6.03;;;;;;;4.62;100.00;94431.41;5033691;28;20236;-63
2022/04/21 02:30:07;;;;;;;8.50;6.73;;;;;;;4.61;100.00;94432.28;5035012;28;20219;-63
2022/04/21 02:32:33;;;;;;;7.50;5.60;;;;;;;4.77;100.00;94442.97;5034498;28;20208;-65
2022/04/21 02:34:58;;;;;;;6.63;5.93;;;;;;;4.79;100.00;94457.97;5034303;28;20273;-64
2022/04/21 02:37:24;;;;;;;8.10;6.30;;;;;;;4.66;100.00;94449.63;5034233;28;20704;-64
2022/04/21 02:39:50;;;;;;;8.47;6.30;;;;;;;4.60;100.00;94438.25;5034755;28;20597;-63
2022/04/21 02:42:16;;;;;;;7.73;5.87;;;;;;;4.45;100.00;94433.38;5034344;28;20208;-62
2022/04/21 02:44:42;;;;;;;7.73;6.37;;;;;;;4.50;100.00;94439.75;5033127;28;20705;-64
2022/04/21 02:47:09;;;;;;;7.97;6.13;;;;;;;4.67;100.00;94447.00;5034373;28;20211;-65
2022/04/21 02:49:35;;;;;;;8.67;6.13;;;;;;;4.71;100.00;94462.69;5034296;28;20185;-63
2022/04/21 02:52:05;;;;;;;8.87;6.57;;;;;;;4.74;100.00;94463.31;5034169;28;20244;-63
2022/04/21 02:57:20;;;;;;;11.87;7.07;;;;;;;4.68;100.00;94430.19;5033360;28;20444;-63
2022/04/21 02:59:47;;;;;;;9.60;6.37;;;;;;;4.67;100.00;94426.84;5034198;28;20182;-65
2022/04/21 03:02:12;;;;;;;10.43;6.57;;;;;;;4.72;100.00;94436.63;5034053;28;20215;-63
2022/04/21 03:04:37;;;;;;;7.37;5.87;;;;;;;4.77;100.00;94432.91;5032699;28;20606;-63
2022/04/21 03:07:04;;;;;;;8.97;6.80;;;;;;;4.80;100.00;94432.72;5032665;28;20249;-64
2022/04/21 03:09:30;;;;;;;7.50;6.03;;;;;;;4.82;100.00;94453.56;5040725;23;20328;-64
2022/04/21 03:12:01;;;;;;;10.80;6.00;;;;;;;4.79;100.00;94463.00;5033821;28;20256;-63
2022/04/21 03:14:26;;;;;;;9.67;7.13;;;;;;;4.79;100.00;94458.78;5033621;28;20307;-64
2022/04/21 03:16:52;;;;;;;7.80;6.30;;;;;;;4.77;100.00;94454.75;5033594;28;20325;-65
2022/04/21 03:19:17;;;;;;;8.90;6.77;;;;;;;4.67;100.00;94444.47;5033433;28;20196;-64
2022/04/21 03:24:29;;;;;;;11.47;6.70;;;;;;;4.48;100.00;94428.97;5033524;28;20233;-62
2022/04/21 03:26:55;;;;;;;8.47;6.93;;;;;;;4.59;100.00;94450.91;5033564;28;20609;-64
2022/04/21 03:29:21;;;;;;;11.53;6.70;;;;;;;4.55;100.00;94444.47;5033641;28;20199;-64
2022/04/21 03:31:47;;;;;;;10.07;7.20;;;;;;;4.37;100.00;94431.34;5032150;28;20213;-63
2022/04/21 03:34:14;;;;;;;8.43;6.23;;;;;;;4.39;100.00;94443.84;5033367;28;20213;-62
2022/04/21 03:36:50;;;;;;;10.33;7.00;;;;;;;4.12;100.00;94406.97;5033317;28;20556;-64
2022/04/21 03:39:21;;;;;;;13.33;8.30;;;;;;;4.23;100.00;94421.38;5033250;28;20192;-65
2022/04/21 03:41:53;;;;;;;10.10;6.87;;;;;;;4.18;100.00;94405.78;5033168;28;20718;-66
2022/04/21 03:44:22;;;;;;;8.47;6.40;;;;;;;4.37;100.00;94440.59;5033249;28;20622;-65
2022/04/21 03:46:48;;;;;;;10.70;6.30;;;;;;;4.21;100.00;94450.84;5033044;28;20683;-63
2022/04/21 03:49:14;;;;;;;10.27;5.13;;;;;;;4.02;100.00;94440.34;5033001;28;20186;-62
2022/04/21 03:51:40;;;;;;;7.13;5.70;;;;;;;3.82;100.00;94423.16;5033028;28;20201;-63
2022/04/21 03:54:06;;;;;;;9.47;6.33;;;;;;;3.76;100.00;94393.38;5031609;28;20210;-64
2022/04/21 03:56:38;;;;;;;7.40;6.30;;;;;;;3.67;100.00;94392.28;5031791;28;20209;-65
2022/04/21 03:59:03;;;;;;;9.63;5.97;;;;;;;3.69;100.00;94392.16;5033017;28;20189;-64
2022/04/21 04:01:29;;;;;;;9.73;6.73;;;;;;;3.68;100.00;94411.47;5032743;28;20194;-62
2022/04/21 04:03:54;;;;;;;8.83;5.83;;;;;;;3.74;100.00;94407.75;5031852;28;20233;-63
2022/04/21 04:11:47;;;;;;;7.37;6.10;;;;;;;4.06;100.00;94416.63;5032992;28;20198;-63
2022/04/21 04:14:13;;;;;;;7.90;5.50;;;;;;;4.21;100.00;94423.19;5032562;28;20219;-63
2022/04/21 04:16:39;;;;;;;6.87;5.93;;;;;;;4.24;100.00;94408.69;5032688;28;20208;-63
2022/04/21 04:19:07;;;;;;;8.37;6.10;;;;;;;4.49;100.00;94423.00;5031193;28;20731;-66
2022/04/21 04:21:36;;;;;;;8.10;6.30;;;;;;;4.65;100.00;94431.19;5032441;28;20223;-63
2022/04/21 04:24:02;;;;;;;8.63;6.53;;;;;;;4.75;100.00;94434.69;5032891;28;20236;-61
2022/04/21 04:26:27;;;;;;;8.50;5.80;;;;;;;4.71;100.00;94429.97;5032458;28;20279;-63
2022/04/21 04:28:53;;;;;;;6.80;5.33;;;;;;;4.59;100.00;94446.69;5032053;28;20203;-66
2022/04/21 04:31:19;;;;;;;6.53;5.20;;;;;;;4.48;100.00;94434.00;5032251;28;20575;-61
2022/04/21 04:33:44;;;;;;;8.00;6.00;;;;;;;4.33;100.00;94416.56;5032143;28;20622;-62
2022/04/21 04:36:10;;;;;;;6.93;5.37;;;;;;;4.39;100.00;94422.00;5032661;28;20556;-65
2022/04/21 04:38:39;;;;;;;7.17;5.20;;;;;;;4.14;100.00;94454.66;5032565;28;20178;-63
2022/04/21 04:43:50;;;;;;;6.70;5.13;;;;;;;3.93;100.00;94411.56;5032427;28;20170;-63
2022/04/21 04:49:00;;;;;;;8.27;5.47;;;;;;;3.97;100.00;94397.06;5031864;28;20174;-62
2022/04/21 04:51:26;;;;;;;6.87;5.10;;;;;;;3.87;100.00;94403.59;5032095;28;20183;-61
2022/04/21 04:53:53;;;;;;;6.77;5.37;;;;;;;4.01;100.00;94421.13;5031561;28;20213;-63
2022/04/21 04:56:21;;;;;;;8.37;6.40;;;;;;;4.02;100.00;94430.28;5030274;28;20248;-63
2022/04/21 04:58:46;;;;;;;9.83;7.17;;;;;;;4.03;100.00;94434.41;5030509;28;20197;-62
2022/04/21 05:01:12;;;;;;;9.30;6.60;;;;;;;4.06;100.00;94416.63;5032002;28;20266;-63
2022/04/21 05:03:39;;;;;;;11.13;7.90;;;;;;;4.16;100.00;94400.03;5031839;28;20209;-62
2022/04/21 05:06:05;;;;;;;10.40;8.20;;;;;;;4.31;100.00;94410.81;5030682;28;20188;-65
2022/04/21 05:08:30;;;;;;;13.20;8.93;;;;;;;4.28;100.00;94391.72;5031793;28;20206;-65
2022/04/21 05:10:56;;;;;;;18.13;9.57;;;;;;;4.30;100.00;94401.66;5031521;28;20289;-64
2022/04/21 05:13:21;;;;;;;15.90;10.77;;;;;;;4.42;100.00;94411.75;5031560;28;20630;-65
2022/04/21 05:15:48;;;;;;;16.23;11.13;;;;;;;4.36;100.00;94414.66;5031621;28;20305;-63
2022/04/21 05:18:14;;;;;;;17.33;12.57;;;;;;;4.25;100.00;94414.53;5031793;28;20202;-63
2022/04/21 05:20:40;;;;;;;16.13;11.23;;;;;;;4.19;100.00;94425.81;5032254;28;20655;-61
2022/04/21 05:23:06;;;;;;;17.17;10.87;;;;;;;4.08;100.00;94419.84;5030332;28;20676;-63
2022/04/21 05:25:36;;;;;;;16.37;11.53;;;;;;;4.31;100.00;94434.28;5030246;28;20191;-66
2022/04/21 05:28:02;;;;;;;17.97;11.93;;;;;;;4.25;100.00;94419.56;5030581;28;20280;-64
2022/04/21 05:33:15;;;;;;;19.73;13.57;;;;;;;4.69;100.00;94440.16;5031902;28;20236;-63
2022/04/21 05:35:42;;;;;;;17.60;12.77;;;;;;;4.72;100.00;94436.63;5031920;28;20226;-62
2022/04/21 05:38:08;;;;;;;25.63;18.37;;;;;;;4.60;100.00;94427.34;5031671;28;20243;-62
2022/04/21 05:40:33;;;;;;;29.13;18.77;;;;;;;4.64;100.00;94424.56;5031429;28;20187;-63
2022/04/21 05:43:05;;;;;;;29.27;20.70;;;;;;;4.73;100.00;94418.91;5031512;28;20228;-62
2022/04/21 05:45:31;;;;;;;24.30;17.50;;;;;;;4.97;100.00;94439.94;5030377;28;20229;-65
2022/04/21 05:47:57;;;;;;;24.93;17.70;;;;;;;5.05;100.00;94445.28;5031363;28;20670;-64
2022/04/21 05:50:23;;;;;;;27.10;18.73;;;;;;;5.05;100.00;94426.81;5031747;28;20206;-61
2022/04/21 05:52:52;;;;;;;26.20;18.57;;;;;;;5.09;100.00;94421.47;5031677;28;20283;-62
2022/04/21 05:55:18;;;;;;;19.13;14.20;;;;;;;5.31;100.00;94435.16;5030310;28;20595;-62
2022/04/21 05:57:44;;;;;;;17.20;12.17;;;;;;;5.49;100.00;94438.94;5031387;28;20199;-64
2022/04/21 06:00:10;;;;;;;18.40;12.67;;;;;;;5.65;100.00;94444.56;5030369;28;20335;-63
2022/04/21 06:02:37;;;;;;;18.00;12.87;;;;;;;5.47;100.00;94438.25;5034023;28;20284;-63
2022/04/21 06:05:03;;;;;;;20.13;12.30;;;;;;;5.27;100.00;94428.72;5035092;28;20298;-63
2022/04/21 06:07:29;;;;;;;17.73;12.90;;;;;;;5.45;100.00;94427.47;5034835;28;20212;-62
2022/04/21 06:09:54;;;;;;;17.87;11.83;;;;;;;5.56;100.00;94423.28;5033539;28;20201;-65
2022/04/21 06:12:20;;;;;;;19.00;13.33;;;;;;;5.77;100.00;94444.53;5034792;28;20288;-62
2022/04/21 06:14:45;;;;;;;16.53;11.80;;;;;;;5.52;100.00;94429.47;5034742;28;20656;-64
2022/04/21 06:17:11;;;;;;;19.17;12.13;;;;;;;5.58;100.00;94426.50;5033386;28;20200;-62
2022/04/21 06:19:36;;;;;;;21.17;12.80;;;;;;;5.43;100.00;94444.41;5034745;28;20635;-61
2022/04/21 06:22:02;;;;;;;15.97;12.43;;;;;;;5.60;100.00;94446.56;5034795;28;20196;-64
2022/04/21 06:24:29;;;;;;;17.50;11.53;;;;;;;5.62;100.00;94475.00;5034722;28;20520;-64
2022/04/21 06:26:54;;;;;;;17.10;12.07;;;;;;;5.47;100.00;94450.84;5034923;28;20697;-63
2022/04/21 06:29:20;;;;;;;17.37;11.43;;;;;;;5.57;100.00;94434.19;5034488;28;20185;-63
2022/04/21 06:31:45;;;;;;;15.40;11.80;;;;;;;5.58;100.00;94448.38;5034561;28;20228;-62
2022/04/21 06:34:11;;;;;;;18.73;11.33;;;;;;;5.69;100.00;94456.03;5034458;28;20230;-62
2022/04/21 06:36:37;;;;;;;15.83;10.70;;;;;;;5.62;100.00;94438.00;5034212;28;20208;-63
2022/04/21 06:39:03;;;;;;;17.20;11.97;;;;;;;5.76;100.00;94459.72;5032959;28;20186;-61
2022/04/21 06:41:29;;;;;;;15.13;11.30;;;;;;;5.86;100.00;94451.47;5034514;28;20209;-62
2022/04/21 06:49:22;;;;;;;16.30;12.10;;;;;;;6.10;100.00;94431.25;5042348;23;20308;-64
2022/04/21 06:51:47;;;;;;;15.17;11.50;;;;;;;6.21;100.00;94493.59;5033849;28;20611;-63
2022/04/21 06:54:13;;;;;;;16.03;10.73;;;;;;;6.01;100.00;94446.25;5034411;28;20673;-62
2022/04/21 06:56:38;;;;;;;17.97;11.03;;;;;;;6.13;100.00;94463.88;5034256;28;20220;-61
2022/04/21 06:59:05;;;;;;;15.50;11.10;;;;;;;6.18;100.00;94454.22;5034528;28;20269;-64
2022/04/21 07:01:31;;;;;;;13.33;10.73;;;;;;;6.56;100.00;94454.84;5033863;28;20276;-65
2022/04/21 07:03:56;;;;;;;14.63;10.60;;;;;;;6.74;100.00;94451.00;5032901;28;20220;-62
2022/04/21 07:06:22;;;;;;;14.27;10.93;;;;;;;6.96;100.00;94483.06;5033899;28;20186;-64
2022/04/21 07:08:48;;;;;;;16.57;11.63;;;;;;;7.04;100.00;94455.50;5032832;28;20266;-64
2022/04/21 07:11:15;;;;;;;11.60;9.30;;;;;;;7.26;100.00;94480.78;5032595;28;20198;-62
2022/04/21 07:13:41;;;;;;;12.70;9.20;;;;;;;7.36;100.00;94534.00;5033813;28;20261;-64
2022/04/21 07:16:07;;;;;;;12.13;9.13;;;;;;;7.27;100.00;94506.88;5033766;28;20627;-60
2022/04/21 07:18:32;;;;;;;10.30;8.87;;;;;;;7.23;100.00;94500.44;5032445;28;20186;-60
2022/04/21 07:21:00;;;;;;;13.80;10.03;;;;;;;6.97;100.00;94481.34;5033468;28;20662;-64
2022/04/21 07:23:26;;;;;;;13.63;9.90;;;;;;;6.78;100.00;94487.75;5033590;28;20240;-62
2022/04/21 07:25:51;;;;;;;15.77;10.03;;;;;;;6.91;100.00;94496.94;5033693;28;20202;-63
2022/04/21 07:28:17;;;;;;;15.60;10.37;;;;;;;7.04;100.00;94511.09;5034043;28;20328;-64
2022/04/21 07:30:42;;;;;;;12.40;9.67;;;;;;;7.26;100.00;94505.25;5033325;28;20170;-63
2022/04/21 07:33:08;;;;;;;14.33;9.77;;;;;;;7.58;100.00;94544.13;5033487;28;20251;-61
2022/04/21 07:35:34;;;;;;;11.47;8.97;;;;;;;7.49;100.00;94542.28;5033493;28;20764;-64
2022/04/21 07:37:59;;;;;;;9.23;7.23;;;;;;;7.52;100.00;94572.41;5033462;28;20602;-63
2022/04/21 07:40:25;;;;;;;13.37;9.47;;;;;;;7.39;100.00;94582.59;5033228;28;20205;-64
2022/04/21 07:42:51;;;;;;;15.37;10.43;;;;;;;7.36;100.00;94549.97;5033280;28;20206;-65
2022/04/21 07:45:17;;;;;;;15.10;10.60;;;;;;;7.55;100.00;94550.19;5032914;28;20324;-62
2022/04/21 07:47:42;;;;;;;17.03;10.67;;;;;;;7.40;100.00;94546.31;5033057;28;20214;-65
2022/04/21 07:50:08;;;;;;;15.37;11.07;;;;;;;7.75;100.00;94530.22;5033372;28;20239;-65
2022/04/21 07:55:24;;;;;;;14.87;10.33;;;;;;;7.55;100.00;94496.31;5033445;28;20224;-64
2022/04/21 07:57:52;;;;;;;14.80;9.37;;;;;;;7.56;100.00;94502.97;5033112;28;20687;-64
2022/04/21 08:00:19;;;;;;;15.43;10.13;;;;;;;7.84;100.00;94527.78;5031686;28;20182;-61
2022/04/21 08:02:46;;;;;;;14.63;9.73;;;;;;;8.16;100.00;94517.75;5032799;28;20210;-64
2022/04/21 08:05:14;;;;;;;16.10;10.90;;;;;;;7.75;100.00;94520.09;5032911;28;20629;-61
2022/04/21 08:07:44;;;;;;;13.13;9.77;;;;;;;7.36;100.00;94491.81;5031372;28;20214;-62
2022/04/21 08:10:11;;;;;;;12.70;9.83;;;;;;;7.03;100.00;94468.25;5031737;28;20193;-61
2022/04/21 08:12:40;;;;;;;14.40;10.10;;;;;;;7.48;100.00;94511.13;5032790;28;20710;-64
2022/04/21 08:15:07;;;;;;;15.67;10.47;;;;;;;7.49;100.00;94509.41;5031127;28;20210;-64
2022/04/21 08:17:33;;;;;;;14.47;9.53;;;;;;;7.67;100.00;94535.84;5032339;28;20281;-64
2022/04/21 08:19:59;;;;;;;14.27;8.97;;;;;;;8.08;100.00;94560.56;5031235;28;20671;-61
2022/04/21 08:22:24;;;;;;;13.03;8.77;;;;;;;8.23;98.60;94589.75;5032463;28;20206;-63
2022/04/21 08:33:02;;;;;;;10.47;8.00;;;;;;;8.68;100.00;94550.75;5032491;28;20209;-62
2022/04/21 08:35:27;;;;;;;13.03;9.40;;;;;;;8.41;100.00;94556.25;5032194;28;20628;-63
2022/04/21 08:37:53;;;;;;;12.47;9.40;;;;;;;8.64;100.00;94558.72;5032406;28;20209;-61
2022/04/21 08:40:18;;;;;;;15.83;9.87;;;;;;;8.86;96.72;94619.47;5032409;28;20190;-61
2022/04/21 08:42:44;;;;;;;13.53;10.00;;;;;;;8.77;99.95;94552.56;5030935;28;20706;-62
2022/04/21 08:45:12;;;;;;;13.20;10.13;;;;;;;8.76;100.00;94515.47;5032795;28;20301;-61
2022/04/21 08:47:46;;;;;;;14.73;10.50;;;;;;;8.77;99.49;94549.19;5032239;28;20210;-62
2022/04/21 08:50:14;;;;;;;13.67;9.43;;;;;;;8.57;96.60;94593.03;5030827;28;20269;-61
2022/04/21 08:52:41;;;;;;;13.10;9.57;;;;;;;8.88;98.65;94561.84;5032109;28;20216;-61
2022/04/21 08:55:08;;;;;;;14.03;9.53;;;;;;;8.84;98.43;94563.00;5031781;28;20684;-62
2022/04/21 08:57:35;;;;;;;13.47;10.33;;;;;;;9.07;96.83;94590.66;5031942;28;20194;-62
2022/04/21 09:00:03;;;;;;;17.40;9.60;;;;;;;9.34;97.78;94559.75;5030569;28;20175;-61
2022/04/21 09:02:41;;;;;;;13.57;9.00;;;;;;;9.14;96.71;94568.16;5032279;28;20206;-63
2022/04/21 09:05:08;;;;;;;12.87;9.07;;;;;;;9.36;97.85;94547.75;5031975;28;20181;-61
2022/04/21 09:07:44;;;;;;;14.07;9.43;;;;;;;9.55;95.62;94585.94;5032340;28;20205;-62
2022/04/21 09:10:12;;;;;;;15.43;10.63;;;;;;;9.61;96.64;94567.66;5031039;28;20180;-63
2022/04/21 09:12:46;;;;;;;16.40;9.17;;;;;;;9.57;94.73;94593.41;5031759;28;20297;-60
2022/04/21 09:15:17;;;;;;;14.30;9.70;;;;;;;9.71;97.17;94550.75;5032004;28;20225;-62
2022/04/21 09:17:47;;;;;;;14.93;10.00;;;;;;;9.69;95.56;94572.09;5033184;28;20245;-63
2022/04/21 09:20:15;;;;;;;11.43;9.17;;;;;;;9.83;95.89;94559.88;5030518;28;20166;-63
2022/04/21 09:22:46;;;;;;;11.33;9.13;;;;;;;9.82;94.29;94582.81;5031885;28;20214;-64
2022/04/21 09:25:11;;;;;;;11.87;9.10;;;;;;;9.76;95.15;94570.66;5032032;28;20651;-61
2022/04/21 09:27:38;;;;;;;13.30;9.67;;;;;;;9.81;91.27;94622.66;5031515;28;20198;-62
2022/04/21 09:30:05;;;;;;;12.93;9.53;;;;;;;9.62;91.75;94612.41;5030731;28;20178;-63
2022/04/21 09:32:31;;;;;;;16.57;9.67;;;;;;;9.82;94.08;94565.88;5031691;28;20194;-65
2022/04/21 09:34:57;;;;;;;12.97;9.93;;;;;;;9.81;92.04;94599.81;5031954;28;20260;-65
2022/04/21 09:37:23;;;;;;;11.03;8.07;;;;;;;9.83;93.13;94580.19;5035670;28;20202;-62
2022/04/21 09:39:55;;;;;;;11.93;9.37;;;;;;;9.71;95.95;94532.97;5034654;28;20202;-63
2022/04/21 09:42:28;;;;;;;12.73;8.83;;;;;;;9.80;96.87;94526.31;5033897;28;20206;-61
2022/04/21 09:48:01;;;;;;;14.67;9.50;;;;;;;9.65;95.75;94530.94;5035723;28;20279;-62
2022/04/21 09:50:27;;;;;;;15.50;10.47;;;;;;;9.71;95.59;94538.06;5034944;28;20174;-60
2022/04/21 09:52:54;;;;;;;13.17;9.33;;;;;;;9.72;93.66;94571.81;5035423;28;20607;-60
2022/04/21 09:55:21;;;;;;;17.63;10.23;;;;;;;9.72;94.46;94551.53;5035319;28;20221;-63
2022/04/21 09:57:49;;;;;;;17.30;10.47;;;;;;;9.98;95.42;94540.00;5034204;28;20234;-63
2022/04/21 10:00:16;;;;;;;14.67;9.63;;;;;;;10.04;95.10;94535.22;5035006;28;20174;-60
2022/04/21 10:02:45;;;;;;;15.03;10.40;;;;;;;10.21;95.12;94540.63;5034894;28;20264;-61
2022/04/21 10:05:12;;;;;;;13.53;10.73;;;;;;;10.52;96.23;94524.38;5035850;28;20175;-64
2022/04/21 10:07:38;;;;;;;15.10;10.90;;;;;;;10.33;94.18;94562.44;5035041;28;20586;-62
2022/04/21 10:10:05;;;;;;;13.53;9.73;;;;;;;10.42;95.71;94515.94;5034824;28;20316;-60
2022/04/21 10:12:31;;;;;;;13.50;9.60;;;;;;;10.62;95.98;94532.81;5034886;28;20214;-65
2022/04/21 10:14:56;;;;;;;19.67;10.20;;;;;;;10.98;94.42;94557.56;5034872;28;20221;-64
2022/04/21 10:17:22;;;;;;;14.13;10.00;;;;;;;11.09;91.82;94598.13;5035009;28;20210;-65
2022/04/21 10:19:51;;;;;;;15.67;10.70;;;;;;;11.11;92.85;94553.00;5035054;28;20614;-64
2022/04/21 10:22:17;;;;;;;16.17;11.57;;;;;;;11.37;92.41;94563.41;5036005;28;20205;-62
2022/04/21 10:24:44;;;;;;;15.83;10.37;;;;;;;11.16;93.11;94550.03;5034795;28;20188;-63
2022/04/21 10:27:39;;;;;;;17.07;10.50;;;;;;;11.31;91.51;94569.84;5034960;28;20207;-62
2022/04/21 10:30:14;;;;;;;15.40;10.70;;;;;;;10.98;92.33;94562.66;5033461;28;20174;-62
2022/04/21 10:32:51;;;;;;;11.77;9.60;;;;;;;11.08;92.42;94553.28;5034601;28;20266;-62
2022/04/21 10:35:18;;;;;;;17.07;10.93;;;;;;;11.07;92.46;94551.66;5034750;28;20237;-65
2022/04/21 10:37:43;;;;;;;16.03;9.90;;;;;;;11.03;91.71;94559.72;5034421;28;20214;-61
2022/04/21 10:40:10;;;;;;;16.57;10.90;;;;;;;11.42;91.56;94567.16;5032990;28;20190;-60
2022/04/21 10:43:03;;;;;;;14.30;9.80;;;;;;;11.61;92.01;94556.13;5034577;28;20209;-64
2022/04/21 10:45:32;;;;;;;17.70;10.67;;;;;;;11.67;90.36;94571.69;5033285;28;20257;-64
2022/04/21 10:48:12;;;;;;;15.27;10.40;;;;;;;11.56;90.84;94564.16;5033507;28;20214;-63
2022/04/21 10:50:42;;;;;;;16.23;9.63;;;;;;;11.65;90.33;94563.34;5032773;28;20182;-61
2022/04/21 10:58:47;;;;;;;16.80;11.00;;;;;;;11.33;93.83;94486.53;5034629;28;20193;-63
2022/04/21 11:01:13;;;;;;;19.33;12.23;;;;;;;11.02;95.60;94471.59;5034185;28;20566;-64
2022/04/21 11:03:40;;;;;;;17.47;11.07;;;;;;;11.35;96.22;94459.19;5034281;28;20185;-62
2022/04/21 11:06:06;;;;;;;15.93;11.53;;;;;;;11.67;95.44;94485.13;5032568;28;20233;-61
2022/04/21 11:08:32;;;;;;;17.47;11.20;;;;;;;11.75;94.71;94492.03;5033963;28;20241;-62
2022/04/21 11:10:58;;;;;;;18.27;10.93;;;;;;;11.97;96.27;94461.09;5033709;28;20179;-63
2022/04/21 11:13:45;;;;;;;19.87;11.23;;;;;;;12.43;95.51;94481.31;5033734;28;20210;-62
2022/04/21 11:16:11;;;;;;;18.70;11.60;;;;;;;12.77;90.67;94573.28;5033636;28;20538;-62
2022/04/21 11:18:36;;;;;;;25.73;10.27;;;;;;;13.00;88.84;94607.63;5034195;28;20178;-61
2022/04/21 11:21:28;;;;;;;17.50;10.87;;;;;;;13.22;90.54;94574.03;5033502;28;20174;-65
2022/04/21 11:23:53;;;;;;;15.37;10.73;;;;;;;13.23;91.69;94534.00;5033809;28;20198;-62
2022/04/21 11:26:25;;;;;;;14.83;10.67;;;;;;;13.51;88.84;94608.72;5033455;28;20233;-63
2022/04/21 11:28:51;;;;;;;17.33;10.43;;;;;;;13.77;86.27;94650.44;5033950;28;20202;-62
2022/04/21 11:31:20;;;;;;;16.43;9.67;;;;;;;13.98;83.68;94689.22;5033511;28;20698;-63
2022/04/21 11:33:46;;;;;;;16.57;11.17;;;;;;;14.30;83.46;94621.22;5033672;28;20178;-61
2022/04/21 11:36:15;;;;;;;16.30;9.83;;;;;;;14.70;80.67;94651.28;5033463;28;20183;-62
2022/04/21 11:38:42;;;;;;;15.88;10.10;;;;;;;14.85;78.62;94649.72;5034653;28;20630;-62
2022/04/21 11:41:09;;;;;;;14.63;9.50;;;;;;;15.09;75.98;94661.78;5035302;28;20170;-63
2022/04/21 11:43:36;;;;;;;14.07;9.73;;;;;;;15.56;73.56;94667.97;5031698;28;20185;-61
2022/04/21 11:46:09;;;;;;;15.02;8.90;;;;;;;15.86;70.45;94717.78;5032864;28;20185;-61
2022/04/21 11:48:42;;;;;;;10.73;8.30;;;;;;;16.10;70.96;94683.66;5032977;28;20198;-63
2022/04/21 11:51:10;;;;;;;11.10;8.18;;;;;;;16.07;66.95;94719.88;5032644;28;20585;-63
2022/04/21 11:53:41;;;;;;;13.13;8.88;;;;;;;16.06;67.58;94678.03;5033076;28;20233;-63
2022/04/21 11:56:11;;;;;;;12.95;8.88;;;;;;;16.31;66.51;94696.75;5033046;28;20277;-65
2022/04/21 11:58:40;;;;;;;10.85;9.35;;;;;;;16.26;66.37;94670.81;5033374;28;20214;-63
2022/04/21 12:06:40;;;;;;;8.85;7.88;;;;;;;15.94;67.22;94630.59;5013071;28;20206;-62
2022/04/21 12:09:08;;;;;;;11.25;8.70;;;;;;;15.66;67.98;94591.72;5013022;28;20187;-62
2022/04/21 12:11:34;;;;;;;10.05;8.73;;;;;;;15.43;68.80;94583.06;5012728;28;20191;-61
2022/04/21 12:14:00;;;;;;;11.77;8.68;;;;;;;15.22;69.09;94574.25;5013028;28;20218;-62
2022/04/21 12:16:58;;;;;;;12.25;8.48;;;;;;;15.23;67.63;94611.72;5012683;28;20171;-62
2022/04/21 12:19:38;;;;;;;10.00;8.32;;;;;;;14.85;67.89;94598.53;5011615;28;20645;-63
2022/04/21 12:22:11;;;;;;;10.57;8.27;;;;;;;14.50;71.52;94505.88;5012507;28;20194;-61
2022/04/21 12:24:39;;;;;;;9.87;8.33;;;;;;;14.16;70.70;94505.88;5018521;23;20289;-64